Cougar Ace — 9VKE — position and weather

sailwx.info

Track history (hours):
 
Tides and Currents Weather Stations Pressure Air Temp Water Temp Dewpoint Dewpoint Depression Visibility Wind Speed Wind Dir Waves Ship Positions

Cougar Ace

Last reported at 2018-Jan-19 14:02 UTC. Time now 2018-Jan-21 16:36 UTC.
Position N 34°14' E 025°00'.

Length 200 m; draft 8.8 m.

Type: Cargo ship. MMSI: 563329000.

Date/timePositionNaut miles runAvg speedWind from/ knotsBaromVisibWave heightAir tempDewpointWater temp
2018-Jan-19 14:02N 34°14' E 025°00'  
2018-Jan-12 04:16N 37°03' E 015°52'6516.7
2018-Jan-12 00:24N 36°29' E 014°44'717.6
2018-Jan-12 00:00N 36°28' E 014°35'918.0
2018-Jan-11 23:29N 36°31' E 014°24'917.6
2018-Jan-11 23:00N 36°34' E 014°14'  
2018-Jan-09 17:04N 36°01' W 005°08'118.0
2018-Jan-09 17:00N 36°00' W 005°10'917.9
2018-Jan-09 16:30N 35°59' W 005°21'816.7
2018-Jan-09 16:01N 35°57' W 005°31'815.7
2018-Jan-09 15:31N 35°55' W 005°40'713.9
2018-Jan-09 15:00N 35°55' W 005°49'612.2
2018-Jan-09 14:30N 35°55' W 005°56'  
Track history (hours):
 
Tides and Currents Weather Stations Pressure Air Temp Water Temp Dewpoint Dewpoint Depression Visibility Wind Speed Wind Dir Waves Ship Positions

Cougar Ace

Last reported at 2018-Jan-19 14:02 UTC. Time now 2018-Jan-21 16:36 UTC.
Position N 34°14' E 025°00'.

Length 200 m; draft 8.8 m.

Type: Cargo ship. MMSI: 563329000.

Date/timePositionNaut miles runAvg speedWind from/ knotsBaromVisibWave heightAir tempDewpointWater temp
2018-Jan-19 14:02N 34°14' E 025°00'  
2018-Jan-12 04:16N 37°03' E 015°52'6516.7
2018-Jan-12 00:24N 36°29' E 014°44'717.6
2018-Jan-12 00:00N 36°28' E 014°35'918.0
2018-Jan-11 23:29N 36°31' E 014°24'917.6
2018-Jan-11 23:00N 36°34' E 014°14'  
2018-Jan-09 17:04N 36°01' W 005°08'118.0
2018-Jan-09 17:00N 36°00' W 005°10'917.9
2018-Jan-09 16:30N 35°59' W 005°21'816.7
2018-Jan-09 16:01N 35°57' W 005°31'815.7
2018-Jan-09 15:31N 35°55' W 005°40'713.9
2018-Jan-09 15:00N 35°55' W 005°49'612.2
2018-Jan-09 14:30N 35°55' W 005°56'  

Dump ship's entire track history